sensor_id;sensor_type;location;lat;lon;timestamp;pressure;altitude;pressure_sealevel;temperature;humidity
34034;BME280;63481;52.588;22.472;2023-04-06T00:00:51;100775.31;;;-1.08;75.91
34034;BME280;63481;52.588;22.472;2023-04-06T00:01:44;100779.80;;;-1.10;75.87
34034;BME280;63481;52.588;22.472;2023-04-06T00:02:37;100780.05;;;-1.11;75.95
34034;BME280;63481;52.588;22.472;2023-04-06T00:03:30;100778.24;;;-1.10;75.72
34034;BME280;63481;52.588;22.472;2023-04-06T00:04:24;100782.34;;;-1.09;75.65
34034;BME280;63481;52.588;22.472;2023-04-06T00:05:18;100782.78;;;-1.08;75.78
34034;BME280;63481;52.588;22.472;2023-04-06T00:06:12;100780.41;;;-1.07;75.73
34034;BME280;63481;52.588;22.472;2023-04-06T00:07:05;100774.91;;;-1.08;75.90
34034;BME280;63481;52.588;22.472;2023-04-06T00:07:59;100777.96;;;-1.09;75.77
34034;BME280;63481;52.588;22.472;2023-04-06T00:08:52;100771.52;;;-1.04;75.56
34034;BME280;63481;52.588;22.472;2023-04-06T00:09:45;100768.14;;;-1.04;75.69
34034;BME280;63481;52.588;22.472;2023-04-06T00:10:39;100765.86;;;-1.03;75.67
34034;BME280;63481;52.588;22.472;2023-04-06T00:11:32;100765.91;;;-1.04;75.68
34034;BME280;63481;52.588;22.472;2023-04-06T00:12:25;100764.55;;;-1.05;75.96
34034;BME280;63481;52.588;22.472;2023-04-06T00:13:18;100761.36;;;-1.04;75.73
34034;BME280;63481;52.588;22.472;2023-04-06T00:14:12;100763.67;;;-1.03;75.85
34034;BME280;63481;52.588;22.472;2023-04-06T00:15:07;100762.77;;;-1.04;75.78
34034;BME280;63481;52.588;22.472;2023-04-06T00:16:00;100762.91;;;-1.04;75.60
34034;BME280;63481;52.588;22.472;2023-04-06T00:16:55;100764.29;;;-1.03;75.51
34034;BME280;63481;52.588;22.472;2023-04-06T00:17:48;100762.40;;;-1.04;75.55
34034;BME280;63481;52.588;22.472;2023-04-06T00:18:41;100761.95;;;-1.05;75.79
34034;BME280;63481;52.588;22.472;2023-04-06T00:19:35;100763.45;;;-1.06;75.62
34034;BME280;63481;52.588;22.472;2023-04-06T00:20:28;100761.71;;;-1.04;75.37
34034;BME280;63481;52.588;22.472;2023-04-06T00:21:22;100763.76;;;-1.05;75.69
34034;BME280;63481;52.588;22.472;2023-04-06T00:22:15;100764.26;;;-1.05;75.61
34034;BME280;63481;52.588;22.472;2023-04-06T00:23:09;100765.64;;;-1.05;75.64
34034;BME280;63481;52.588;22.472;2023-04-06T00:24:02;100766.09;;;-1.04;75.40
34034;BME280;63481;52.588;22.472;2023-04-06T00:24:56;100763.27;;;-1.01;75.10
34034;BME280;63481;52.588;22.472;2023-04-06T00:25:50;100764.36;;;-0.96;74.75
34034;BME280;63481;52.588;22.472;2023-04-06T00:26:43;100761.09;;;-0.90;74.35
34034;BME280;63481;52.588;22.472;2023-04-06T00:27:38;100762.88;;;-0.90;74.46
34034;BME280;63481;52.588;22.472;2023-04-06T00:28:31;100761.23;;;-0.87;74.36
34034;BME280;63481;52.588;22.472;2023-04-06T00:29:25;100758.60;;;-0.85;74.01
34034;BME280;63481;52.588;22.472;2023-04-06T00:30:18;100758.05;;;-0.82;73.82
34034;BME280;63481;52.588;22.472;2023-04-06T00:31:12;100758.90;;;-0.82;73.95
34034;BME280;63481;52.588;22.472;2023-04-06T00:32:05;100758.06;;;-0.80;73.59
34034;BME280;63481;52.588;22.472;2023-04-06T00:32:59;100754.63;;;-0.81;73.79
34034;BME280;63481;52.588;22.472;2023-04-06T00:33:53;100754.98;;;-0.83;73.82
34034;BME280;63481;52.588;22.472;2023-04-06T00:34:47;100755.35;;;-0.84;73.80
34034;BME280;63481;52.588;22.472;2023-04-06T00:35:40;100752.95;;;-0.84;73.78
34034;BME280;63481;52.588;22.472;2023-04-06T00:36:33;100751.85;;;-0.83;73.68
34034;BME280;63481;52.588;22.472;2023-04-06T00:37:27;100752.31;;;-0.83;73.76
34034;BME280;63481;52.588;22.472;2023-04-06T00:38:21;100752.06;;;-0.84;73.68
34034;BME280;63481;52.588;22.472;2023-04-06T00:39:14;100753.87;;;-0.82;73.84
34034;BME280;63481;52.588;22.472;2023-04-06T00:40:08;100750.22;;;-0.80;73.60
34034;BME280;63481;52.588;22.472;2023-04-06T00:41:03;100748.42;;;-0.80;73.81
34034;BME280;63481;52.588;22.472;2023-04-06T00:41:56;100747.79;;;-0.78;73.51
34034;BME280;63481;52.588;22.472;2023-04-06T00:42:50;100745.08;;;-0.73;72.93
34034;BME280;63481;52.588;22.472;2023-04-06T00:43:43;100745.32;;;-0.69;72.98
34034;BME280;63481;52.588;22.472;2023-04-06T00:44:36;100739.52;;;-0.65;72.55
34034;BME280;63481;52.588;22.472;2023-04-06T00:45:30;100743.15;;;-0.67;72.75
34034;BME280;63481;52.588;22.472;2023-04-06T00:46:23;100740.13;;;-0.68;72.77
34034;BME280;63481;52.588;22.472;2023-04-06T00:47:17;100736.60;;;-0.70;72.84
34034;BME280;63481;52.588;22.472;2023-04-06T00:48:10;100736.56;;;-0.69;72.70
34034;BME280;63481;52.588;22.472;2023-04-06T00:49:03;100735.27;;;-0.68;72.72
34034;BME280;63481;52.588;22.472;2023-04-06T00:49:57;100735.14;;;-0.65;72.46
34034;BME280;63481;52.588;22.472;2023-04-06T00:50:50;100733.92;;;-0.63;72.48
34034;BME280;63481;52.588;22.472;2023-04-06T00:51:44;100731.48;;;-0.60;72.27
34034;BME280;63481;52.588;22.472;2023-04-06T00:52:38;100727.88;;;-0.63;72.46
34034;BME280;63481;52.588;22.472;2023-04-06T00:53:32;100729.37;;;-0.62;72.51
34034;BME280;63481;52.588;22.472;2023-04-06T00:54:29;100727.37;;;-0.61;72.51
34034;BME280;63481;52.588;22.472;2023-04-06T00:55:23;100726.15;;;-0.62;72.31
34034;BME280;63481;52.588;22.472;2023-04-06T00:56:17;100723.17;;;-0.63;72.48
34034;BME280;63481;52.588;22.472;2023-04-06T00:57:15;100726.65;;;-0.59;72.13
34034;BME280;63481;52.588;22.472;2023-04-06T00:58:09;100726.52;;;-0.55;72.06
34034;BME280;63481;52.588;22.472;2023-04-06T00:59:11;100727.11;;;-0.56;71.99
34034;BME280;63481;52.588;22.472;2023-04-06T01:00:05;100727.08;;;-0.53;72.08
34034;BME280;63481;52.588;22.472;2023-04-06T01:00:59;100725.86;;;-0.53;72.06
34034;BME280;63481;52.588;22.472;2023-04-06T01:01:53;100726.55;;;-0.51;71.61
34034;BME280;63481;52.588;22.472;2023-04-06T01:03:00;100721.27;;;-0.49;71.82
34034;BME280;63481;52.588;22.472;2023-04-06T01:04:01;100720.41;;;-0.51;72.11
34034;BME280;63481;52.588;22.472;2023-04-06T01:04:56;100719.51;;;-0.52;72.19
34034;BME280;63481;52.588;22.472;2023-04-06T01:06:05;100721.69;;;-0.53;72.13
34034;BME280;63481;52.588;22.472;2023-04-06T01:07:02;100718.66;;;-0.53;71.88
34034;BME280;63481;52.588;22.472;2023-04-06T01:08:02;100722.91;;;-0.54;72.01
34034;BME280;63481;52.588;22.472;2023-04-06T01:08:56;100721.29;;;-0.51;71.71
34034;BME280;63481;52.588;22.472;2023-04-06T01:09:53;100725.30;;;-0.47;71.51
34034;BME280;63481;52.588;22.472;2023-04-06T01:10:47;100725.16;;;-0.47;71.56
34034;BME280;63481;52.588;22.472;2023-04-06T01:11:58;100727.15;;;-0.46;71.58
34034;BME280;63481;52.588;22.472;2023-04-06T01:12:53;100725.05;;;-0.46;71.66
34034;BME280;63481;52.588;22.472;2023-04-06T01:13:57;100725.27;;;-0.44;71.43
34034;BME280;63481;52.588;22.472;2023-04-06T01:14:59;100723.01;;;-0.44;71.59
34034;BME280;63481;52.588;22.472;2023-04-06T01:15:53;100723.09;;;-0.43;71.28
34034;BME280;63481;52.588;22.472;2023-04-06T01:17:00;100721.27;;;-0.42;71.10
34034;BME280;63481;52.588;22.472;2023-04-06T01:17:57;100717.03;;;-0.44;71.43
34034;BME280;63481;52.588;22.472;2023-04-06T01:18:50;100719.25;;;-0.45;71.48
34034;BME280;63481;52.588;22.472;2023-04-06T01:19:49;100713.67;;;-0.45;71.35
34034;BME280;63481;52.588;22.472;2023-04-06T01:20:48;100715.98;;;-0.44;71.57
34034;BME280;63481;52.588;22.472;2023-04-06T01:21:41;100711.73;;;-0.45;71.75
34034;BME280;63481;52.588;22.472;2023-04-06T01:22:42;100712.34;;;-0.44;71.74
34034;BME280;63481;52.588;22.472;2023-04-06T01:23:36;100712.29;;;-0.37;71.10
34034;BME280;63481;52.588;22.472;2023-04-06T01:24:29;100707.88;;;-0.37;71.26
34034;BME280;63481;52.588;22.472;2023-04-06T01:25:43;100710.90;;;-0.37;71.31
34034;BME280;63481;52.588;22.472;2023-04-06T01:26:37;100708.38;;;-0.36;71.15
34034;BME280;63481;52.588;22.472;2023-04-06T01:27:32;100704.23;;;-0.37;71.10
34034;BME280;63481;52.588;22.472;2023-04-06T01:28:52;100705.84;;;-0.35;70.81
34034;BME280;63481;52.588;22.472;2023-04-06T01:29:56;100709.77;;;-0.36;70.97
34034;BME280;63481;52.588;22.472;2023-04-06T01:31:18;100705.63;;;-0.35;70.62
34034;BME280;63481;52.588;22.472;2023-04-06T01:32:16;100708.54;;;-0.34;70.73
34034;BME280;63481;52.588;22.472;2023-04-06T01:33:13;100703.90;;;-0.31;70.46
34034;BME280;63481;52.588;22.472;2023-04-06T01:34:21;100705.45;;;-0.26;70.32
34034;BME280;63481;52.588;22.472;2023-04-06T01:35:14;100707.28;;;-0.30;70.39
34034;BME280;63481;52.588;22.472;2023-04-06T01:36:13;100708.32;;;-0.29;70.45
34034;BME280;63481;52.588;22.472;2023-04-06T01:37:07;100706.21;;;-0.31;70.73
34034;BME280;63481;52.588;22.472;2023-04-06T01:38:02;100708.66;;;-0.31;70.71
34034;BME280;63481;52.588;22.472;2023-04-06T01:38:58;100709.73;;;-0.29;70.70
34034;BME280;63481;52.588;22.472;2023-04-06T01:39:57;100705.04;;;-0.32;70.55
34034;BME280;63481;52.588;22.472;2023-04-06T01:41:02;100705.31;;;-0.31;70.62
34034;BME280;63481;52.588;22.472;2023-04-06T01:41:59;100706.97;;;-0.30;70.48
34034;BME280;63481;52.588;22.472;2023-04-06T01:42:52;100704.64;;;-0.31;70.93
34034;BME280;63481;52.588;22.472;2023-04-06T01:43:52;100705.34;;;-0.31;70.81
34034;BME280;63481;52.588;22.472;2023-04-06T01:44:50;100704.42;;;-0.31;70.51
34034;BME280;63481;52.588;22.472;2023-04-06T01:45:44;100699.34;;;-0.33;70.81
34034;BME280;63481;52.588;22.472;2023-04-06T01:46:41;100702.02;;;-0.33;70.99
34034;BME280;63481;52.588;22.472;2023-04-06T01:47:35;100702.71;;;-0.33;70.89
34034;BME280;63481;52.588;22.472;2023-04-06T01:48:29;100698.42;;;-0.32;70.69
34034;BME280;63481;52.588;22.472;2023-04-06T01:49:23;100697.21;;;-0.32;70.78
34034;BME280;63481;52.588;22.472;2023-04-06T01:50:20;100697.29;;;-0.31;70.50
34034;BME280;63481;52.588;22.472;2023-04-06T01:51:14;100698.15;;;-0.29;70.56
34034;BME280;63481;52.588;22.472;2023-04-06T01:52:28;100696.52;;;-0.30;70.98
34034;BME280;63481;52.588;22.472;2023-04-06T01:53:22;100693.36;;;-0.30;70.71
34034;BME280;63481;52.588;22.472;2023-04-06T01:54:15;100692.66;;;-0.32;70.81
34034;BME280;63481;52.588;22.472;2023-04-06T01:55:43;100684.40;;;-0.27;70.65
34034;BME280;63481;52.588;22.472;2023-04-06T01:56:52;100685.45;;;-0.27;70.64
34034;BME280;63481;52.588;22.472;2023-04-06T01:57:57;100686.05;;;-0.28;70.89
34034;BME280;63481;52.588;22.472;2023-04-06T01:58:58;100686.91;;;-0.30;70.67
34034;BME280;63481;52.588;22.472;2023-04-06T01:59:51;100685.70;;;-0.30;70.73
34034;BME280;63481;52.588;22.472;2023-04-06T02:00:51;100686.71;;;-0.32;71.24
34034;BME280;63481;52.588;22.472;2023-04-06T02:01:46;100682.27;;;-0.31;70.83
34034;BME280;63481;52.588;22.472;2023-04-06T02:02:39;100684.79;;;-0.32;70.91
34034;BME280;63481;52.588;22.472;2023-04-06T02:03:34;100683.34;;;-0.31;70.94
34034;BME280;63481;52.588;22.472;2023-04-06T02:04:31;100681.25;;;-0.27;70.59
34034;BME280;63481;52.588;22.472;2023-04-06T02:05:34;100683.81;;;-0.31;71.01
34034;BME280;63481;52.588;22.472;2023-04-06T02:06:49;100680.41;;;-0.30;70.84
34034;BME280;63481;52.588;22.472;2023-04-06T02:07:42;100683.54;;;-0.25;70.47
34034;BME280;63481;52.588;22.472;2023-04-06T02:08:36;100678.20;;;-0.24;70.66
34034;BME280;63481;52.588;22.472;2023-04-06T02:09:28;100676.65;;;-0.20;70.16
34034;BME280;63481;52.588;22.472;2023-04-06T02:10:22;100675.11;;;-0.20;70.16
34034;BME280;63481;52.588;22.472;2023-04-06T02:11:15;100672.59;;;-0.24;70.59
34034;BME280;63481;52.588;22.472;2023-04-06T02:12:13;100672.45;;;-0.27;70.48
34034;BME280;63481;52.588;22.472;2023-04-06T02:13:06;100673.05;;;-0.25;70.86
34034;BME280;63481;52.588;22.472;2023-04-06T02:14:00;100673.73;;;-0.27;70.62
34034;BME280;63481;52.588;22.472;2023-04-06T02:14:55;100671.95;;;-0.27;70.68
34034;BME280;63481;52.588;22.472;2023-04-06T02:15:47;100668.23;;;-0.30;71.10
34034;BME280;63481;52.588;22.472;2023-04-06T02:16:40;100668.86;;;-0.33;71.39
34034;BME280;63481;52.588;22.472;2023-04-06T02:17:33;100669.80;;;-0.32;71.23
34034;BME280;63481;52.588;22.472;2023-04-06T02:18:26;100667.75;;;-0.26;70.67
34034;BME280;63481;52.588;22.472;2023-04-06T02:19:19;100669.81;;;-0.26;70.70
34034;BME280;63481;52.588;22.472;2023-04-06T02:20:11;100667.17;;;-0.30;70.67
34034;BME280;63481;52.588;22.472;2023-04-06T02:21:04;100666.35;;;-0.29;70.71
34034;BME280;63481;52.588;22.472;2023-04-06T02:21:57;100669.73;;;-0.27;70.67
34034;BME280;63481;52.588;22.472;2023-04-06T02:22:49;100669.17;;;-0.29;70.82
34034;BME280;63481;52.588;22.472;2023-04-06T02:23:42;100667.14;;;-0.30;70.94
34034;BME280;63481;52.588;22.472;2023-04-06T02:24:35;100669.11;;;-0.32;71.29
34034;BME280;63481;52.588;22.472;2023-04-06T02:25:28;100663.95;;;-0.29;70.94
34034;BME280;63481;52.588;22.472;2023-04-06T02:26:20;100660.23;;;-0.29;70.89
34034;BME280;63481;52.588;22.472;2023-04-06T02:27:14;100663.17;;;-0.28;70.95
34034;BME280;63481;52.588;22.472;2023-04-06T02:28:07;100665.64;;;-0.28;70.93
34034;BME280;63481;52.588;22.472;2023-04-06T02:29:00;100660.35;;;-0.28;70.82
34034;BME280;63481;52.588;22.472;2023-04-06T02:29:54;100661.84;;;-0.31;70.96
34034;BME280;63481;52.588;22.472;2023-04-06T02:30:47;100658.54;;;-0.33;71.08
34034;BME280;63481;52.588;22.472;2023-04-06T02:31:40;100657.04;;;-0.34;71.32
34034;BME280;63481;52.588;22.472;2023-04-06T02:32:33;100657.19;;;-0.34;71.13
34034;BME280;63481;52.588;22.472;2023-04-06T02:33:26;100658.27;;;-0.32;71.37
34034;BME280;63481;52.588;22.472;2023-04-06T02:34:19;100659.53;;;-0.30;71.09
34034;BME280;63481;52.588;22.472;2023-04-06T02:35:15;100662.65;;;-0.26;70.89
34034;BME280;63481;52.588;22.472;2023-04-06T02:36:08;100658.59;;;-0.26;70.75
34034;BME280;63481;52.588;22.472;2023-04-06T02:37:01;100658.97;;;-0.26;70.80
34034;BME280;63481;52.588;22.472;2023-04-06T02:37:54;100656.84;;;-0.30;71.03
34034;BME280;63481;52.588;22.472;2023-04-06T02:38:47;100655.55;;;-0.33;71.37
34034;BME280;63481;52.588;22.472;2023-04-06T02:39:39;100657.83;;;-0.31;71.03
34034;BME280;63481;52.588;22.472;2023-04-06T02:40:34;100657.60;;;-0.30;71.09
34034;BME280;63481;52.588;22.472;2023-04-06T02:41:33;100658.27;;;-0.30;71.26
34034;BME280;63481;52.588;22.472;2023-04-06T02:42:25;100653.64;;;-0.29;71.26
34034;BME280;63481;52.588;22.472;2023-04-06T02:43:19;100652.73;;;-0.31;71.44
34034;BME280;63481;52.588;22.472;2023-04-06T02:44:12;100652.07;;;-0.31;71.56
34034;BME280;63481;52.588;22.472;2023-04-06T02:45:09;100654.23;;;-0.34;71.84
34034;BME280;63481;52.588;22.472;2023-04-06T02:46:06;100652.20;;;-0.33;71.51
34034;BME280;63481;52.588;22.472;2023-04-06T02:47:01;100654.06;;;-0.34;71.59
34034;BME280;63481;52.588;22.472;2023-04-06T02:47:55;100652.84;;;-0.32;71.72
34034;BME280;63481;52.588;22.472;2023-04-06T02:48:49;100649.97;;;-0.33;71.78
34034;BME280;63481;52.588;22.472;2023-04-06T02:49:42;100653.77;;;-0.33;71.87
34034;BME280;63481;52.588;22.472;2023-04-06T02:50:36;100651.70;;;-0.35;72.18
34034;BME280;63481;52.588;22.472;2023-04-06T02:51:31;100653.83;;;-0.33;72.06
34034;BME280;63481;52.588;22.472;2023-04-06T02:52:32;100650.77;;;-0.34;72.25
34034;BME280;63481;52.588;22.472;2023-04-06T02:53:25;100651.61;;;-0.34;72.19
34034;BME280;63481;52.588;22.472;2023-04-06T02:54:19;100655.57;;;-0.36;72.10
34034;BME280;63481;52.588;22.472;2023-04-06T02:55:13;100657.02;;;-0.34;72.28
34034;BME280;63481;52.588;22.472;2023-04-06T02:56:06;100652.61;;;-0.36;72.69
34034;BME280;63481;52.588;22.472;2023-04-06T02:57:13;100651.48;;;-0.37;72.82
34034;BME280;63481;52.588;22.472;2023-04-06T02:58:09;100652.35;;;-0.39;73.00
34034;BME280;63481;52.588;22.472;2023-04-06T02:59:09;100653.98;;;-0.39;73.08
34034;BME280;63481;52.588;22.472;2023-04-06T03:00:03;100652.24;;;-0.40;73.24
34034;BME280;63481;52.588;22.472;2023-04-06T03:01:03;100652.59;;;-0.40;73.34
34034;BME280;63481;52.588;22.472;2023-04-06T03:01:56;100653.58;;;-0.39;73.33
34034;BME280;63481;52.588;22.472;2023-04-06T03:02:48;100648.16;;;-0.35;73.19
34034;BME280;63481;52.588;22.472;2023-04-06T03:03:42;100651.62;;;-0.36;73.24
34034;BME280;63481;52.588;22.472;2023-04-06T03:04:39;100652.45;;;-0.36;73.34
34034;BME280;63481;52.588;22.472;2023-04-06T03:05:35;100649.92;;;-0.35;73.35
34034;BME280;63481;52.588;22.472;2023-04-06T03:06:28;100650.16;;;-0.36;73.49
34034;BME280;63481;52.588;22.472;2023-04-06T03:07:23;100653.81;;;-0.37;73.75
34034;BME280;63481;52.588;22.472;2023-04-06T03:08:16;100654.64;;;-0.39;73.94
34034;BME280;63481;52.588;22.472;2023-04-06T03:09:10;100651.05;;;-0.36;73.68
34034;BME280;63481;52.588;22.472;2023-04-06T03:10:07;100652.02;;;-0.35;73.76
34034;BME280;63481;52.588;22.472;2023-04-06T03:10:59;100647.52;;;-0.39;73.99
34034;BME280;63481;52.588;22.472;2023-04-06T03:11:59;100652.43;;;-0.42;74.12
34034;BME280;63481;52.588;22.472;2023-04-06T03:12:52;100651.86;;;-0.41;73.96
34034;BME280;63481;52.588;22.472;2023-04-06T03:13:48;100646.96;;;-0.41;74.08
34034;BME280;63481;52.588;22.472;2023-04-06T03:14:41;100647.85;;;-0.39;74.29
34034;BME280;63481;52.588;22.472;2023-04-06T03:15:33;100644.87;;;-0.41;74.33
34034;BME280;63481;52.588;22.472;2023-04-06T03:16:35;100650.95;;;-0.43;74.62
34034;BME280;63481;52.588;22.472;2023-04-06T03:17:28;100648.70;;;-0.39;74.45
34034;BME280;63481;52.588;22.472;2023-04-06T03:18:23;100646.58;;;-0.40;74.48
34034;BME280;63481;52.588;22.472;2023-04-06T03:19:17;100645.44;;;-0.42;74.47
34034;BME280;63481;52.588;22.472;2023-04-06T03:20:10;100647.39;;;-0.42;74.57
34034;BME280;63481;52.588;22.472;2023-04-06T03:21:03;100646.88;;;-0.42;74.71
34034;BME280;63481;52.588;22.472;2023-04-06T03:22:07;100644.52;;;-0.41;74.60
34034;BME280;63481;52.588;22.472;2023-04-06T03:23:00;100642.59;;;-0.37;74.73
34034;BME280;63481;52.588;22.472;2023-04-06T03:23:56;100643.58;;;-0.38;74.73
34034;BME280;63481;52.588;22.472;2023-04-06T03:24:49;100641.89;;;-0.39;74.76
34034;BME280;63481;52.588;22.472;2023-04-06T03:25:41;100643.42;;;-0.41;75.03
34034;BME280;63481;52.588;22.472;2023-04-06T03:26:36;100643.23;;;-0.40;75.17
34034;BME280;63481;52.588;22.472;2023-04-06T03:27:31;100644.27;;;-0.38;75.28
34034;BME280;63481;52.588;22.472;2023-04-06T03:28:25;100642.98;;;-0.37;75.35
34034;BME280;63481;52.588;22.472;2023-04-06T03:29:23;100645.06;;;-0.39;75.39
34034;BME280;63481;52.588;22.472;2023-04-06T03:30:16;100646.77;;;-0.41;75.40
34034;BME280;63481;52.588;22.472;2023-04-06T03:31:10;100641.88;;;-0.39;75.34
34034;BME280;63481;52.588;22.472;2023-04-06T03:32:11;100644.42;;;-0.40;75.71
34034;BME280;63481;52.588;22.472;2023-04-06T03:33:07;100641.77;;;-0.40;75.49
34034;BME280;63481;52.588;22.472;2023-04-06T03:34:03;100644.39;;;-0.40;75.87
34034;BME280;63481;52.588;22.472;2023-04-06T03:34:58;100641.24;;;-0.40;75.57
34034;BME280;63481;52.588;22.472;2023-04-06T03:35:51;100636.52;;;-0.38;75.78
34034;BME280;63481;52.588;22.472;2023-04-06T03:36:44;100642.90;;;-0.36;75.83
34034;BME280;63481;52.588;22.472;2023-04-06T03:37:37;100641.46;;;-0.38;75.77
34034;BME280;63481;52.588;22.472;2023-04-06T03:38:31;100641.05;;;-0.39;76.23
34034;BME280;63481;52.588;22.472;2023-04-06T03:39:24;100637.03;;;-0.39;76.07
34034;BME280;63481;52.588;22.472;2023-04-06T03:40:17;100635.57;;;-0.32;75.89
34034;BME280;63481;52.588;22.472;2023-04-06T03:41:10;100638.14;;;-0.32;75.85
34034;BME280;63481;52.588;22.472;2023-04-06T03:42:04;100636.77;;;-0.30;75.80
34034;BME280;63481;52.588;22.472;2023-04-06T03:43:01;100638.28;;;-0.29;75.98
34034;BME280;63481;52.588;22.472;2023-04-06T03:43:54;100639.16;;;-0.30;75.93
34034;BME280;63481;52.588;22.472;2023-04-06T03:44:47;100638.05;;;-0.33;76.13
34034;BME280;63481;52.588;22.472;2023-04-06T03:45:41;100638.73;;;-0.35;76.13
34034;BME280;63481;52.588;22.472;2023-04-06T03:46:34;100635.79;;;-0.35;76.35
34034;BME280;63481;52.588;22.472;2023-04-06T03:47:26;100638.52;;;-0.32;76.25
34034;BME280;63481;52.588;22.472;2023-04-06T03:48:23;100637.95;;;-0.33;76.27
34034;BME280;63481;52.588;22.472;2023-04-06T03:49:15;100639.36;;;-0.34;76.65
34034;BME280;63481;52.588;22.472;2023-04-06T03:50:09;100638.14;;;-0.32;76.57
34034;BME280;63481;52.588;22.472;2023-04-06T03:51:02;100638.03;;;-0.27;76.18
34034;BME280;63481;52.588;22.472;2023-04-06T03:51:56;100639.48;;;-0.29;76.37
34034;BME280;63481;52.588;22.472;2023-04-06T03:52:48;100635.43;;;-0.27;76.65
34034;BME280;63481;52.588;22.472;2023-04-06T03:53:41;100638.71;;;-0.28;76.61
34034;BME280;63481;52.588;22.472;2023-04-06T03:54:34;100643.39;;;-0.26;76.53
34034;BME280;63481;52.588;22.472;2023-04-06T03:55:27;100639.42;;;-0.25;76.59
34034;BME280;63481;52.588;22.472;2023-04-06T03:56:20;100638.96;;;-0.25;76.78
34034;BME280;63481;52.588;22.472;2023-04-06T03:57:13;100637.50;;;-0.24;76.50
34034;BME280;63481;52.588;22.472;2023-04-06T03:58:05;100639.30;;;-0.25;76.77
34034;BME280;63481;52.588;22.472;2023-04-06T03:58:58;100636.14;;;-0.25;76.83
34034;BME280;63481;52.588;22.472;2023-04-06T03:59:51;100637.91;;;-0.23;76.74
34034;BME280;63481;52.588;22.472;2023-04-06T04:00:43;100637.87;;;-0.24;76.80
34034;BME280;63481;52.588;22.472;2023-04-06T04:01:36;100635.51;;;-0.24;76.95
34034;BME280;63481;52.588;22.472;2023-04-06T04:02:29;100630.28;;;-0.22;76.79
34034;BME280;63481;52.588;22.472;2023-04-06T04:03:24;100632.48;;;-0.23;77.02
34034;BME280;63481;52.588;22.472;2023-04-06T04:04:19;100632.84;;;-0.23;77.11
34034;BME280;63481;52.588;22.472;2023-04-06T04:05:12;100633.61;;;-0.22;76.96
34034;BME280;63481;52.588;22.472;2023-04-06T04:06:05;100635.76;;;-0.24;77.33
34034;BME280;63481;52.588;22.472;2023-04-06T04:06:58;100638.02;;;-0.24;77.22
34034;BME280;63481;52.588;22.472;2023-04-06T04:07:51;100630.69;;;-0.20;77.17
34034;BME280;63481;52.588;22.472;2023-04-06T04:08:44;100628.10;;;-0.23;77.20
34034;BME280;63481;52.588;22.472;2023-04-06T04:09:37;100628.05;;;-0.24;77.42
34034;BME280;63481;52.588;22.472;2023-04-06T04:10:30;100625.68;;;-0.23;77.33
34034;BME280;63481;52.588;22.472;2023-04-06T04:11:23;100623.95;;;-0.23;77.53
34034;BME280;63481;52.588;22.472;2023-04-06T04:12:20;100626.80;;;-0.22;77.55
34034;BME280;63481;52.588;22.472;2023-04-06T04:13:13;100625.51;;;-0.17;77.41
34034;BME280;63481;52.588;22.472;2023-04-06T04:14:06;100622.73;;;-0.19;77.16
34034;BME280;63481;52.588;22.472;2023-04-06T04:14:59;100620.29;;;-0.19;77.39
34034;BME280;63481;52.588;22.472;2023-04-06T04:15:52;100618.39;;;-0.17;77.47
34034;BME280;63481;52.588;22.472;2023-04-06T04:16:47;100619.27;;;-0.15;77.44
34034;BME280;63481;52.588;22.472;2023-04-06T04:17:40;100617.48;;;-0.15;77.57
34034;BME280;63481;52.588;22.472;2023-04-06T04:18:33;100616.61;;;-0.17;77.59
34034;BME280;63481;52.588;22.472;2023-04-06T04:19:26;100617.50;;;-0.15;77.34
34034;BME280;63481;52.588;22.472;2023-04-06T04:20:18;100614.30;;;-0.16;77.31
34034;BME280;63481;52.588;22.472;2023-04-06T04:21:11;100617.42;;;-0.18;77.58
34034;BME280;63481;52.588;22.472;2023-04-06T04:22:04;100618.52;;;-0.17;77.61
34034;BME280;63481;52.588;22.472;2023-04-06T04:22:59;100615.93;;;-0.17;77.72
34034;BME280;63481;52.588;22.472;2023-04-06T04:23:51;100617.27;;;-0.14;77.67
34034;BME280;63481;52.588;22.472;2023-04-06T04:24:45;100618.13;;;-0.12;77.57
34034;BME280;63481;52.588;22.472;2023-04-06T04:25:37;100620.25;;;-0.13;77.40
34034;BME280;63481;52.588;22.472;2023-04-06T04:26:30;100616.16;;;-0.10;77.47
34034;BME280;63481;52.588;22.472;2023-04-06T04:27:23;100618.58;;;-0.11;77.37
34034;BME280;63481;52.588;22.472;2023-04-06T04:28:16;100619.03;;;-0.13;77.49
34034;BME280;63481;52.588;22.472;2023-04-06T04:29:09;100621.25;;;-0.12;77.52
34034;BME280;63481;52.588;22.472;2023-04-06T04:30:03;100620.02;;;-0.12;77.74
34034;BME280;63481;52.588;22.472;2023-04-06T04:30:55;100621.59;;;-0.10;77.58
34034;BME280;63481;52.588;22.472;2023-04-06T04:31:49;100616.61;;;-0.09;77.50
34034;BME280;63481;52.588;22.472;2023-04-06T04:32:43;100623.56;;;-0.08;77.53
34034;BME280;63481;52.588;22.472;2023-04-06T04:33:37;100623.58;;;-0.11;77.58
34034;BME280;63481;52.588;22.472;2023-04-06T04:34:33;100619.32;;;-0.12;77.84
34034;BME280;63481;52.588;22.472;2023-04-06T04:35:28;100623.67;;;-0.14;77.90
34034;BME280;63481;52.588;22.472;2023-04-06T04:36:20;100623.30;;;-0.11;77.90
34034;BME280;63481;52.588;22.472;2023-04-06T04:37:14;100626.58;;;-0.13;77.75
34034;BME280;63481;52.588;22.472;2023-04-06T04:38:15;100617.98;;;-0.14;77.84
34034;BME280;63481;52.588;22.472;2023-04-06T04:39:09;100620.16;;;-0.15;78.26
34034;BME280;63481;52.588;22.472;2023-04-06T04:40:05;100618.33;;;-0.17;78.53
34034;BME280;63481;52.588;22.472;2023-04-06T04:41:05;100614.45;;;-0.20;78.76
34034;BME280;63481;52.588;22.472;2023-04-06T04:41:59;100613.67;;;-0.22;78.83
34034;BME280;63481;52.588;22.472;2023-04-06T04:42:53;100612.59;;;-0.23;79.16
34034;BME280;63481;52.588;22.472;2023-04-06T04:44:05;100613.85;;;-0.23;79.35
34034;BME280;63481;52.588;22.472;2023-04-06T04:44:58;100609.54;;;-0.22;79.41
34034;BME280;63481;52.588;22.472;2023-04-06T04:46:04;100614.86;;;-0.25;79.42